sensor_id;sensor_type;location;lat;lon;timestamp;P1;durP1;ratioP1;P2;durP2;ratioP2
51006;SDS011;37034;47.886;-3.904;2023-08-24T00:03:57;6.25;;;2.67;;
51006;SDS011;37034;47.886;-3.904;2023-08-24T00:06:23;10.98;;;3.60;;
51006;SDS011;37034;47.886;-3.904;2023-08-24T00:11:15;6.25;;;2.63;;
51006;SDS011;37034;47.886;-3.904;2023-08-24T00:13:41;9.10;;;2.90;;
51006;SDS011;37034;47.886;-3.904;2023-08-24T00:16:13;10.13;;;3.17;;
51006;SDS011;37034;47.886;-3.904;2023-08-24T00:18:40;9.30;;;2.67;;
51006;SDS011;37034;47.886;-3.904;2023-08-24T00:21:06;7.45;;;2.80;;
51006;SDS011;37034;47.886;-3.904;2023-08-24T00:23:32;9.60;;;3.20;;
51006;SDS011;37034;47.886;-3.904;2023-08-24T00:25:58;9.63;;;2.65;;
51006;SDS011;37034;47.886;-3.904;2023-08-24T00:28:25;11.18;;;3.60;;
51006;SDS011;37034;47.886;-3.904;2023-08-24T00:30:51;5.63;;;2.70;;
51006;SDS011;37034;47.886;-3.904;2023-08-24T00:33:16;12.30;;;3.65;;
51006;SDS011;37034;47.886;-3.904;2023-08-24T00:35:42;15.68;;;3.55;;
51006;SDS011;37034;47.886;-3.904;2023-08-24T00:38:08;7.05;;;3.13;;
51006;SDS011;37034;47.886;-3.904;2023-08-24T00:40:34;13.85;;;2.90;;
51006;SDS011;37034;47.886;-3.904;2023-08-24T00:42:59;6.70;;;3.28;;
51006;SDS011;37034;47.886;-3.904;2023-08-24T00:45:25;10.45;;;3.00;;
51006;SDS011;37034;47.886;-3.904;2023-08-24T00:47:51;10.52;;;3.35;;
51006;SDS011;37034;47.886;-3.904;2023-08-24T00:50:17;8.65;;;3.13;;
51006;SDS011;37034;47.886;-3.904;2023-08-24T00:52:44;12.32;;;2.80;;
51006;SDS011;37034;47.886;-3.904;2023-08-24T00:55:11;6.57;;;2.97;;
51006;SDS011;37034;47.886;-3.904;2023-08-24T00:57:38;9.65;;;3.10;;
51006;SDS011;37034;47.886;-3.904;2023-08-24T01:00:07;6.93;;;2.97;;
51006;SDS011;37034;47.886;-3.904;2023-08-24T01:02:36;7.25;;;3.28;;
51006;SDS011;37034;47.886;-3.904;2023-08-24T01:05:03;10.98;;;3.58;;
51006;SDS011;37034;47.886;-3.904;2023-08-24T01:07:32;8.13;;;2.88;;
51006;SDS011;37034;47.886;-3.904;2023-08-24T01:10:04;9.88;;;3.22;;
51006;SDS011;37034;47.886;-3.904;2023-08-24T01:17:28;7.43;;;2.78;;
51006;SDS011;37034;47.886;-3.904;2023-08-24T01:19:56;8.82;;;3.20;;
51006;SDS011;37034;47.886;-3.904;2023-08-24T01:27:33;8.00;;;3.03;;
51006;SDS011;37034;47.886;-3.904;2023-08-24T01:30:00;10.20;;;4.15;;
51006;SDS011;37034;47.886;-3.904;2023-08-24T01:32:29;8.52;;;3.03;;
51006;SDS011;37034;47.886;-3.904;2023-08-24T01:34:57;4.65;;;2.67;;
51006;SDS011;37034;47.886;-3.904;2023-08-24T01:37:23;10.80;;;3.30;;
51006;SDS011;37034;47.886;-3.904;2023-08-24T01:45:20;7.97;;;3.80;;
51006;SDS011;37034;47.886;-3.904;2023-08-24T01:47:49;6.28;;;2.80;;
51006;SDS011;37034;47.886;-3.904;2023-08-24T01:50:17;11.63;;;3.50;;
51006;SDS011;37034;47.886;-3.904;2023-08-24T01:52:43;13.93;;;3.58;;
51006;SDS011;37034;47.886;-3.904;2023-08-24T01:55:09;9.18;;;3.28;;
51006;SDS011;37034;47.886;-3.904;2023-08-24T01:57:35;11.65;;;3.28;;
51006;SDS011;37034;47.886;-3.904;2023-08-24T02:00:01;7.68;;;3.40;;
51006;SDS011;37034;47.886;-3.904;2023-08-24T02:02:27;6.88;;;3.40;;
51006;SDS011;37034;47.886;-3.904;2023-08-24T02:04:53;12.00;;;3.13;;
51006;SDS011;37034;47.886;-3.904;2023-08-24T02:07:18;9.88;;;3.00;;
51006;SDS011;37034;47.886;-3.904;2023-08-24T02:09:44;10.60;;;3.63;;
51006;SDS011;37034;47.886;-3.904;2023-08-24T02:12:10;9.25;;;3.42;;
51006;SDS011;37034;47.886;-3.904;2023-08-24T02:14:35;9.57;;;3.17;;
51006;SDS011;37034;47.886;-3.904;2023-08-24T02:17:01;8.18;;;3.50;;
51006;SDS011;37034;47.886;-3.904;2023-08-24T02:19:27;11.48;;;3.38;;
51006;SDS011;37034;47.886;-3.904;2023-08-24T02:21:52;12.15;;;3.85;;
51006;SDS011;37034;47.886;-3.904;2023-08-24T02:24:18;8.80;;;3.33;;
51006;SDS011;37034;47.886;-3.904;2023-08-24T02:26:43;10.27;;;3.35;;
51006;SDS011;37034;47.886;-3.904;2023-08-24T02:29:09;7.40;;;3.42;;
51006;SDS011;37034;47.886;-3.904;2023-08-24T02:31:35;12.30;;;3.50;;
51006;SDS011;37034;47.886;-3.904;2023-08-24T02:34:00;7.63;;;3.05;;
51006;SDS011;37034;47.886;-3.904;2023-08-24T02:36:26;9.55;;;3.20;;
51006;SDS011;37034;47.886;-3.904;2023-08-24T02:38:52;8.35;;;3.70;;
51006;SDS011;37034;47.886;-3.904;2023-08-24T02:41:18;8.32;;;3.53;;
51006;SDS011;37034;47.886;-3.904;2023-08-24T02:43:43;10.82;;;3.75;;
51006;SDS011;37034;47.886;-3.904;2023-08-24T02:46:09;8.95;;;3.80;;
51006;SDS011;37034;47.886;-3.904;2023-08-24T02:48:35;18.25;;;4.38;;
51006;SDS011;37034;47.886;-3.904;2023-08-24T02:51:01;11.70;;;4.45;;
51006;SDS011;37034;47.886;-3.904;2023-08-24T02:53:28;11.05;;;4.13;;
51006;SDS011;37034;47.886;-3.904;2023-08-24T02:55:54;13.57;;;4.35;;
51006;SDS011;37034;47.886;-3.904;2023-08-24T02:58:21;9.65;;;3.45;;
51006;SDS011;37034;47.886;-3.904;2023-08-24T03:03:15;7.72;;;3.90;;
51006;SDS011;37034;47.886;-3.904;2023-08-24T03:05:51;6.38;;;3.47;;
51006;SDS011;37034;47.886;-3.904;2023-08-24T03:08:24;9.30;;;4.03;;
51006;SDS011;37034;47.886;-3.904;2023-08-24T03:10:50;10.95;;;4.57;;
51006;SDS011;37034;47.886;-3.904;2023-08-24T03:13:16;13.93;;;4.88;;
51006;SDS011;37034;47.886;-3.904;2023-08-24T03:15:41;8.88;;;3.70;;
51006;SDS011;37034;47.886;-3.904;2023-08-24T03:18:09;7.90;;;3.65;;
51006;SDS011;37034;47.886;-3.904;2023-08-24T03:20:36;8.98;;;3.95;;
51006;SDS011;37034;47.886;-3.904;2023-08-24T03:23:02;10.05;;;3.70;;
51006;SDS011;37034;47.886;-3.904;2023-08-24T03:27:54;7.28;;;3.45;;
51006;SDS011;37034;47.886;-3.904;2023-08-24T03:32:47;9.85;;;4.07;;
51006;SDS011;37034;47.886;-3.904;2023-08-24T03:35:13;8.95;;;3.88;;
51006;SDS011;37034;47.886;-3.904;2023-08-24T03:37:40;9.77;;;3.95;;
51006;SDS011;37034;47.886;-3.904;2023-08-24T03:40:05;15.27;;;4.18;;
51006;SDS011;37034;47.886;-3.904;2023-08-24T03:44:58;9.55;;;4.20;;
51006;SDS011;37034;47.886;-3.904;2023-08-24T03:47:24;8.13;;;3.63;;
51006;SDS011;37034;47.886;-3.904;2023-08-24T03:49:50;11.05;;;3.88;;
51006;SDS011;37034;47.886;-3.904;2023-08-24T03:52:16;11.68;;;4.38;;
51006;SDS011;37034;47.886;-3.904;2023-08-24T03:54:41;10.85;;;3.67;;
51006;SDS011;37034;47.886;-3.904;2023-08-24T03:57:07;8.98;;;4.05;;
51006;SDS011;37034;47.886;-3.904;2023-08-24T03:59:33;7.90;;;3.95;;
51006;SDS011;37034;47.886;-3.904;2023-08-24T04:01:58;16.88;;;4.72;;
51006;SDS011;37034;47.886;-3.904;2023-08-24T04:04:27;8.52;;;4.18;;
51006;SDS011;37034;47.886;-3.904;2023-08-24T04:06:53;8.55;;;4.13;;
51006;SDS011;37034;47.886;-3.904;2023-08-24T04:09:18;7.43;;;4.10;;
51006;SDS011;37034;47.886;-3.904;2023-08-24T04:11:44;7.25;;;3.63;;
51006;SDS011;37034;47.886;-3.904;2023-08-24T04:14:10;10.50;;;4.30;;
51006;SDS011;37034;47.886;-3.904;2023-08-24T04:16:35;11.57;;;4.05;;
51006;SDS011;37034;47.886;-3.904;2023-08-24T04:19:01;10.38;;;3.53;;
51006;SDS011;37034;47.886;-3.904;2023-08-24T04:21:27;9.60;;;4.25;;
51006;SDS011;37034;47.886;-3.904;2023-08-24T04:23:52;12.95;;;4.15;;
51006;SDS011;37034;47.886;-3.904;2023-08-24T04:26:18;10.52;;;4.10;;
51006;SDS011;37034;47.886;-3.904;2023-08-24T04:28:44;12.48;;;4.10;;
51006;SDS011;37034;47.886;-3.904;2023-08-24T04:31:09;11.82;;;3.83;;
51006;SDS011;37034;47.886;-3.904;2023-08-24T04:33:35;9.95;;;3.65;;
51006;SDS011;37034;47.886;-3.904;2023-08-24T04:36:01;9.77;;;4.38;;
51006;SDS011;37034;47.886;-3.904;2023-08-24T04:38:30;14.55;;;4.55;;
51006;SDS011;37034;47.886;-3.904;2023-08-24T04:40:56;10.05;;;3.95;;
51006;SDS011;37034;47.886;-3.904;2023-08-24T04:43:22;7.60;;;4.03;;
51006;SDS011;37034;47.886;-3.904;2023-08-24T04:45:49;8.55;;;3.63;;
51006;SDS011;37034;47.886;-3.904;2023-08-24T04:48:19;9.73;;;4.30;;
51006;SDS011;37034;47.886;-3.904;2023-08-24T04:50:46;10.27;;;3.92;;
51006;SDS011;37034;47.886;-3.904;2023-08-24T04:53:13;9.30;;;3.72;;
51006;SDS011;37034;47.886;-3.904;2023-08-24T04:55:40;7.50;;;3.72;;
51006;SDS011;37034;47.886;-3.904;2023-08-24T05:00:32;8.98;;;3.83;;
51006;SDS011;37034;47.886;-3.904;2023-08-24T05:02:58;10.45;;;3.55;;
51006;SDS011;37034;47.886;-3.904;2023-08-24T05:05:24;7.60;;;3.72;;
51006;SDS011;37034;47.886;-3.904;2023-08-24T05:07:50;8.10;;;3.50;;
51006;SDS011;37034;47.886;-3.904;2023-08-24T05:10:15;11.07;;;3.75;;
51006;SDS011;37034;47.886;-3.904;2023-08-24T05:12:41;10.13;;;3.53;;
51006;SDS011;37034;47.886;-3.904;2023-08-24T05:15:07;7.50;;;3.92;;
51006;SDS011;37034;47.886;-3.904;2023-08-24T05:17:33;8.63;;;3.20;;
51006;SDS011;37034;47.886;-3.904;2023-08-24T05:19:58;8.90;;;3.47;;
51006;SDS011;37034;47.886;-3.904;2023-08-24T05:22:24;9.25;;;4.18;;
51006;SDS011;37034;47.886;-3.904;2023-08-24T05:24:51;10.35;;;4.50;;
51006;SDS011;37034;47.886;-3.904;2023-08-24T05:27:16;7.85;;;3.85;;
51006;SDS011;37034;47.886;-3.904;2023-08-24T05:29:42;9.52;;;4.43;;
51006;SDS011;37034;47.886;-3.904;2023-08-24T05:34:34;14.00;;;5.00;;
51006;SDS011;37034;47.886;-3.904;2023-08-24T05:36:59;10.65;;;4.63;;
51006;SDS011;37034;47.886;-3.904;2023-08-24T05:39:25;8.63;;;4.20;;
51006;SDS011;37034;47.886;-3.904;2023-08-24T05:41:51;10.25;;;4.07;;
51006;SDS011;37034;47.886;-3.904;2023-08-24T05:44:20;8.68;;;4.25;;
51006;SDS011;37034;47.886;-3.904;2023-08-24T05:46:46;8.00;;;4.05;;
51006;SDS011;37034;47.886;-3.904;2023-08-24T05:49:12;8.13;;;4.32;;
51006;SDS011;37034;47.886;-3.904;2023-08-24T05:54:04;12.18;;;4.05;;
51006;SDS011;37034;47.886;-3.904;2023-08-24T05:56:30;9.85;;;3.75;;
51006;SDS011;37034;47.886;-3.904;2023-08-24T05:58:57;6.50;;;3.63;;
51006;SDS011;37034;47.886;-3.904;2023-08-24T06:01:23;9.63;;;4.60;;
51006;SDS011;37034;47.886;-3.904;2023-08-24T06:06:15;10.15;;;4.20;;
51006;SDS011;37034;47.886;-3.904;2023-08-24T06:08:41;10.82;;;4.20;;
51006;SDS011;37034;47.886;-3.904;2023-08-24T06:11:07;9.07;;;4.05;;
51006;SDS011;37034;47.886;-3.904;2023-08-24T06:13:32;14.25;;;4.80;;
51006;SDS011;37034;47.886;-3.904;2023-08-24T06:15:58;9.90;;;4.10;;
51006;SDS011;37034;47.886;-3.904;2023-08-24T06:18:24;10.35;;;4.43;;
51006;SDS011;37034;47.886;-3.904;2023-08-24T06:20:49;9.60;;;3.75;;
51006;SDS011;37034;47.886;-3.904;2023-08-24T06:23:18;6.00;;;3.63;;
51006;SDS011;37034;47.886;-3.904;2023-08-24T06:25:45;12.70;;;4.35;;
51006;SDS011;37034;47.886;-3.904;2023-08-24T06:28:11;12.43;;;4.50;;
51006;SDS011;37034;47.886;-3.904;2023-08-24T06:30:40;10.65;;;4.30;;
51006;SDS011;37034;47.886;-3.904;2023-08-24T06:33:07;10.38;;;3.88;;
51006;SDS011;37034;47.886;-3.904;2023-08-24T06:35:33;9.75;;;4.32;;
51006;SDS011;37034;47.886;-3.904;2023-08-24T06:37:59;7.32;;;4.20;;
51006;SDS011;37034;47.886;-3.904;2023-08-24T06:42:51;10.75;;;4.28;;
51006;SDS011;37034;47.886;-3.904;2023-08-24T06:45:16;6.97;;;3.80;;
51006;SDS011;37034;47.886;-3.904;2023-08-24T06:47:43;8.68;;;4.00;;
51006;SDS011;37034;47.886;-3.904;2023-08-24T06:50:10;9.25;;;4.30;;
51006;SDS011;37034;47.886;-3.904;2023-08-24T06:52:36;12.93;;;4.40;;
51006;SDS011;37034;47.886;-3.904;2023-08-24T06:55:02;11.98;;;4.95;;
51006;SDS011;37034;47.886;-3.904;2023-08-24T06:57:28;11.50;;;4.35;;
51006;SDS011;37034;47.886;-3.904;2023-08-24T07:02:20;5.53;;;4.03;;
51006;SDS011;37034;47.886;-3.904;2023-08-24T07:04:45;10.05;;;3.92;;
51006;SDS011;37034;47.886;-3.904;2023-08-24T07:07:11;14.95;;;4.38;;
51006;SDS011;37034;47.886;-3.904;2023-08-24T07:09:38;10.52;;;3.90;;
51006;SDS011;37034;47.886;-3.904;2023-08-24T07:12:04;10.57;;;3.90;;
51006;SDS011;37034;47.886;-3.904;2023-08-24T07:14:32;9.43;;;4.25;;
51006;SDS011;37034;47.886;-3.904;2023-08-24T07:19:23;7.15;;;3.80;;
51006;SDS011;37034;47.886;-3.904;2023-08-24T07:21:49;16.10;;;4.15;;
51006;SDS011;37034;47.886;-3.904;2023-08-24T07:24:16;9.23;;;4.25;;
51006;SDS011;37034;47.886;-3.904;2023-08-24T07:26:44;8.15;;;3.83;;
51006;SDS011;37034;47.886;-3.904;2023-08-24T07:29:10;9.30;;;4.57;;
51006;SDS011;37034;47.886;-3.904;2023-08-24T07:31:36;7.78;;;3.67;;
51006;SDS011;37034;47.886;-3.904;2023-08-24T07:34:02;7.45;;;4.15;;
51006;SDS011;37034;47.886;-3.904;2023-08-24T07:36:29;7.93;;;3.80;;
51006;SDS011;37034;47.886;-3.904;2023-08-24T07:38:55;13.50;;;4.15;;
51006;SDS011;37034;47.886;-3.904;2023-08-24T07:41:21;9.95;;;4.38;;
51006;SDS011;37034;47.886;-3.904;2023-08-24T07:43:47;7.70;;;4.40;;
51006;SDS011;37034;47.886;-3.904;2023-08-24T07:46:12;10.00;;;4.10;;
51006;SDS011;37034;47.886;-3.904;2023-08-24T07:48:38;9.75;;;4.30;;
51006;SDS011;37034;47.886;-3.904;2023-08-24T07:51:04;11.70;;;4.40;;
51006;SDS011;37034;47.886;-3.904;2023-08-24T07:53:30;11.15;;;4.22;;
51006;SDS011;37034;47.886;-3.904;2023-08-24T07:55:58;11.95;;;4.15;;
51006;SDS011;37034;47.886;-3.904;2023-08-24T07:58:24;9.65;;;4.30;;
51006;SDS011;37034;47.886;-3.904;2023-08-24T08:00:51;8.68;;;4.35;;
51006;SDS011;37034;47.886;-3.904;2023-08-24T08:03:18;8.82;;;4.30;;
51006;SDS011;37034;47.886;-3.904;2023-08-24T08:05:44;9.32;;;4.13;;
51006;SDS011;37034;47.886;-3.904;2023-08-24T08:08:10;10.80;;;4.65;;
51006;SDS011;37034;47.886;-3.904;2023-08-24T08:10:36;8.77;;;3.97;;
51006;SDS011;37034;47.886;-3.904;2023-08-24T08:13:01;12.25;;;4.18;;
51006;SDS011;37034;47.886;-3.904;2023-08-24T08:15:27;11.90;;;4.53;;
51006;SDS011;37034;47.886;-3.904;2023-08-24T08:17:53;10.63;;;4.38;;
51006;SDS011;37034;47.886;-3.904;2023-08-24T08:20:18;8.60;;;4.00;;
51006;SDS011;37034;47.886;-3.904;2023-08-24T08:22:44;8.75;;;4.22;;
51006;SDS011;37034;47.886;-3.904;2023-08-24T08:25:10;9.90;;;4.40;;
51006;SDS011;37034;47.886;-3.904;2023-08-24T08:27:37;10.23;;;4.63;;
51006;SDS011;37034;47.886;-3.904;2023-08-24T08:30:04;11.70;;;3.90;;
51006;SDS011;37034;47.886;-3.904;2023-08-24T08:34:55;7.68;;;4.43;;
51006;SDS011;37034;47.886;-3.904;2023-08-24T08:37:25;10.00;;;4.50;;
51006;SDS011;37034;47.886;-3.904;2023-08-24T08:39:51;8.68;;;4.60;;
51006;SDS011;37034;47.886;-3.904;2023-08-24T08:42:16;11.55;;;4.82;;
51006;SDS011;37034;47.886;-3.904;2023-08-24T08:44:43;10.98;;;4.07;;
51006;SDS011;37034;47.886;-3.904;2023-08-24T08:47:10;11.70;;;4.53;;
51006;SDS011;37034;47.886;-3.904;2023-08-24T08:49:39;12.02;;;4.28;;
51006;SDS011;37034;47.886;-3.904;2023-08-24T08:52:10;10.30;;;4.68;;
51006;SDS011;37034;47.886;-3.904;2023-08-24T08:54:36;10.02;;;3.85;;
51006;SDS011;37034;47.886;-3.904;2023-08-24T08:57:02;9.30;;;4.03;;
51006;SDS011;37034;47.886;-3.904;2023-08-24T08:59:28;14.57;;;4.75;;
51006;SDS011;37034;47.886;-3.904;2023-08-24T09:01:56;10.98;;;4.22;;
51006;SDS011;37034;47.886;-3.904;2023-08-24T09:04:25;11.40;;;4.80;;
51006;SDS011;37034;47.886;-3.904;2023-08-24T09:06:56;18.15;;;4.63;;
51006;SDS011;37034;47.886;-3.904;2023-08-24T09:09:23;9.57;;;4.22;;
51006;SDS011;37034;47.886;-3.904;2023-08-24T09:11:50;9.48;;;3.80;;
51006;SDS011;37034;47.886;-3.904;2023-08-24T09:14:16;10.93;;;4.30;;
51006;SDS011;37034;47.886;-3.904;2023-08-24T09:16:41;11.07;;;4.22;;
51006;SDS011;37034;47.886;-3.904;2023-08-24T09:19:10;10.32;;;3.85;;
51006;SDS011;37034;47.886;-3.904;2023-08-24T09:21:37;9.40;;;4.00;;
51006;SDS011;37034;47.886;-3.904;2023-08-24T09:24:04;7.75;;;4.22;;
51006;SDS011;37034;47.886;-3.904;2023-08-24T09:26:31;8.68;;;4.18;;
51006;SDS011;37034;47.886;-3.904;2023-08-24T09:29:01;8.63;;;4.22;;
51006;SDS011;37034;47.886;-3.904;2023-08-24T09:31:38;12.73;;;4.60;;
51006;SDS011;37034;47.886;-3.904;2023-08-24T09:34:04;14.07;;;4.30;;
51006;SDS011;37034;47.886;-3.904;2023-08-24T09:36:34;10.02;;;4.00;;
51006;SDS011;37034;47.886;-3.904;2023-08-24T09:39:01;9.15;;;3.75;;
51006;SDS011;37034;47.886;-3.904;2023-08-24T09:41:44;10.38;;;4.05;;
51006;SDS011;37034;47.886;-3.904;2023-08-24T09:44:13;10.77;;;4.15;;
51006;SDS011;37034;47.886;-3.904;2023-08-24T09:46:39;13.57;;;4.15;;
51006;SDS011;37034;47.886;-3.904;2023-08-24T09:49:09;11.45;;;4.30;;
51006;SDS011;37034;47.886;-3.904;2023-08-24T09:51:37;6.88;;;3.83;;
51006;SDS011;37034;47.886;-3.904;2023-08-24T09:54:07;13.20;;;4.60;;
51006;SDS011;37034;47.886;-3.904;2023-08-24T09:56:40;11.35;;;4.93;;
51006;SDS011;37034;47.886;-3.904;2023-08-24T10:01:42;9.48;;;4.32;;
51006;SDS011;37034;47.886;-3.904;2023-08-24T10:04:10;9.35;;;4.15;;
51006;SDS011;37034;47.886;-3.904;2023-08-24T10:06:39;9.15;;;4.55;;
51006;SDS011;37034;47.886;-3.904;2023-08-24T10:09:12;9.65;;;4.60;;
51006;SDS011;37034;47.886;-3.904;2023-08-24T10:11:49;9.82;;;4.15;;
51006;SDS011;37034;47.886;-3.904;2023-08-24T10:14:25;6.97;;;4.00;;
51006;SDS011;37034;47.886;-3.904;2023-08-24T10:16:54;8.52;;;4.20;;
51006;SDS011;37034;47.886;-3.904;2023-08-24T10:19:21;7.93;;;4.55;;
51006;SDS011;37034;47.886;-3.904;2023-08-24T10:21:48;12.13;;;4.35;;
51006;SDS011;37034;47.886;-3.904;2023-08-24T10:24:15;8.05;;;4.38;;
51006;SDS011;37034;47.886;-3.904;2023-08-24T10:26:42;12.93;;;4.28;;
51006;SDS011;37034;47.886;-3.904;2023-08-24T10:29:08;8.52;;;3.85;;
51006;SDS011;37034;47.886;-3.904;2023-08-24T10:31:35;12.73;;;4.47;;
51006;SDS011;37034;47.886;-3.904;2023-08-24T10:34:01;10.73;;;4.65;;
51006;SDS011;37034;47.886;-3.904;2023-08-24T10:36:27;6.60;;;4.20;;
51006;SDS011;37034;47.886;-3.904;2023-08-24T10:38:57;8.93;;;4.15;;
51006;SDS011;37034;47.886;-3.904;2023-08-24T10:41:30;9.02;;;4.35;;
51006;SDS011;37034;47.886;-3.904;2023-08-24T10:52:24;9.23;;;4.40;;
51006;SDS011;37034;47.886;-3.904;2023-08-24T10:54:53;8.93;;;4.07;;
51006;SDS011;37034;47.886;-3.904;2023-08-24T11:02:45;8.90;;;4.25;;
51006;SDS011;37034;47.886;-3.904;2023-08-24T11:10:19;10.20;;;5.00;;
51006;SDS011;37034;47.886;-3.904;2023-08-24T11:15:33;8.15;;;4.25;;
51006;SDS011;37034;47.886;-3.904;2023-08-24T11:20:49;7.75;;;4.47;;
51006;SDS011;37034;47.886;-3.904;2023-08-24T11:23:16;8.00;;;4.28;;
51006;SDS011;37034;47.886;-3.904;2023-08-24T11:25:42;9.77;;;4.38;;
51006;SDS011;37034;47.886;-3.904;2023-08-24T11:28:09;12.70;;;4.88;;
51006;SDS011;37034;47.886;-3.904;2023-08-24T11:30:35;12.40;;;4.88;;
51006;SDS011;37034;47.886;-3.904;2023-08-24T11:35:27;8.50;;;4.50;;
51006;SDS011;37034;47.886;-3.904;2023-08-24T11:40:19;8.60;;;4.20;;
51006;SDS011;37034;47.886;-3.904;2023-08-24T11:42:45;8.63;;;4.90;;
51006;SDS011;37034;47.886;-3.904;2023-08-24T11:45:12;10.75;;;4.50;;
51006;SDS011;37034;47.886;-3.904;2023-08-24T11:47:39;5.75;;;4.30;;
51006;SDS011;37034;47.886;-3.904;2023-08-24T11:50:05;9.82;;;4.45;;
51006;SDS011;37034;47.886;-3.904;2023-08-24T11:52:33;6.50;;;4.03;;
51006;SDS011;37034;47.886;-3.904;2023-08-24T11:55:04;13.52;;;4.95;;
51006;SDS011;37034;47.886;-3.904;2023-08-24T11:57:33;8.90;;;4.80;;
51006;SDS011;37034;47.886;-3.904;2023-08-24T12:00:02;11.07;;;5.25;;
51006;SDS011;37034;47.886;-3.904;2023-08-24T12:02:29;10.00;;;5.10;;
51006;SDS011;37034;47.886;-3.904;2023-08-24T12:04:58;9.32;;;4.70;;
51006;SDS011;37034;47.886;-3.904;2023-08-24T12:07:24;11.68;;;4.55;;
51006;SDS011;37034;47.886;-3.904;2023-08-24T12:09:51;15.20;;;5.00;;
51006;SDS011;37034;47.886;-3.904;2023-08-24T12:12:19;11.02;;;5.53;;
51006;SDS011;37034;47.886;-3.904;2023-08-24T12:14:49;9.05;;;4.72;;
51006;SDS011;37034;47.886;-3.904;2023-08-24T12:17:15;7.45;;;4.47;;
51006;SDS011;37034;47.886;-3.904;2023-08-24T12:19:44;12.50;;;4.70;;
51006;SDS011;37034;47.886;-3.904;2023-08-24T12:22:22;11.02;;;5.40;;
51006;SDS011;37034;47.886;-3.904;2023-08-24T12:24:47;8.75;;;4.63;;
51006;SDS011;37034;47.886;-3.904;2023-08-24T12:27:23;13.00;;;4.75;;
51006;SDS011;37034;47.886;-3.904;2023-08-24T12:29:49;8.63;;;4.60;;
51006;SDS011;37034;47.886;-3.904;2023-08-24T12:32:15;7.93;;;4.95;;
51006;SDS011;37034;47.886;-3.904;2023-08-24T12:34:44;8.15;;;4.85;;
51006;SDS011;37034;47.886;-3.904;2023-08-24T12:37:10;10.73;;;4.68;;
51006;SDS011;37034;47.886;-3.904;2023-08-24T12:39:37;11.70;;;4.55;;
51006;SDS011;37034;47.886;-3.904;2023-08-24T12:42:04;11.88;;;4.43;;
51006;SDS011;37034;47.886;-3.904;2023-08-24T12:44:30;6.72;;;4.53;;
51006;SDS011;37034;47.886;-3.904;2023-08-24T12:46:56;9.05;;;4.50;;
51006;SDS011;37034;47.886;-3.904;2023-08-24T12:51:47;7.93;;;4.10;;
51006;SDS011;37034;47.886;-3.904;2023-08-24T12:54:12;10.18;;;4.60;;
51006;SDS011;37034;47.886;-3.904;2023-08-24T12:56:41;9.75;;;4.88;;
51006;SDS011;37034;47.886;-3.904;2023-08-24T12:59:07;10.70;;;4.93;;
51006;SDS011;37034;47.886;-3.904;2023-08-24T13:01:34;9.70;;;4.60;;
51006;SDS011;37034;47.886;-3.904;2023-08-24T13:03:59;11.13;;;5.18;;
51006;SDS011;37034;47.886;-3.904;2023-08-24T13:06:25;12.20;;;5.47;;
51006;SDS011;37034;47.886;-3.904;2023-08-24T13:08:52;13.07;;;4.50;;
51006;SDS011;37034;47.886;-3.904;2023-08-24T13:11:18;9.65;;;4.28;;
51006;SDS011;37034;47.886;-3.904;2023-08-24T13:13:44;11.32;;;4.43;;
51006;SDS011;37034;47.886;-3.904;2023-08-24T13:16:10;14.90;;;4.65;;
51006;SDS011;37034;47.886;-3.904;2023-08-24T13:18:36;12.35;;;4.70;;
51006;SDS011;37034;47.886;-3.904;2023-08-24T13:21:02;11.93;;;4.90;;
51006;SDS011;37034;47.886;-3.904;2023-08-24T13:25:53;12.88;;;5.15;;
51006;SDS011;37034;47.886;-3.904;2023-08-24T13:28:20;16.20;;;5.63;;
51006;SDS011;37034;47.886;-3.904;2023-08-24T13:30:46;16.75;;;4.60;;
51006;SDS011;37034;47.886;-3.904;2023-08-24T13:33:13;10.45;;;5.03;;
51006;SDS011;37034;47.886;-3.904;2023-08-24T13:35:40;10.98;;;4.38;;
51006;SDS011;37034;47.886;-3.904;2023-08-24T13:38:06;12.00;;;4.85;;
51006;SDS011;37034;47.886;-3.904;2023-08-24T13:40:31;10.38;;;4.47;;
51006;SDS011;37034;47.886;-3.904;2023-08-24T13:42:57;7.75;;;3.85;;
51006;SDS011;37034;47.886;-3.904;2023-08-24T13:45:22;8.18;;;3.83;;
51006;SDS011;37034;47.886;-3.904;2023-08-24T13:47:48;18.08;;;5.65;;
51006;SDS011;37034;47.886;-3.904;2023-08-24T13:52:39;15.10;;;4.78;;
51006;SDS011;37034;47.886;-3.904;2023-08-24T13:55:05;12.88;;;4.60;;
51006;SDS011;37034;47.886;-3.904;2023-08-24T13:57:31;11.27;;;4.47;;
51006;SDS011;37034;47.886;-3.904;2023-08-24T13:59:57;8.20;;;4.20;;
51006;SDS011;37034;47.886;-3.904;2023-08-24T14:02:22;9.93;;;4.05;;
51006;SDS011;37034;47.886;-3.904;2023-08-24T14:07:13;11.23;;;4.15;;
51006;SDS011;37034;47.886;-3.904;2023-08-24T14:12:05;14.90;;;5.38;;
51006;SDS011;37034;47.886;-3.904;2023-08-24T14:14:30;15.32;;;5.05;;
51006;SDS011;37034;47.886;-3.904;2023-08-24T14:19:22;16.20;;;4.70;;
51006;SDS011;37034;47.886;-3.904;2023-08-24T14:21:49;15.68;;;4.55;;
51006;SDS011;37034;47.886;-3.904;2023-08-24T14:24:14;12.15;;;4.03;;
51006;SDS011;37034;47.886;-3.904;2023-08-24T14:29:10;11.38;;;4.38;;
51006;SDS011;37034;47.886;-3.904;2023-08-24T14:31:36;15.98;;;4.28;;
51006;SDS011;37034;47.886;-3.904;2023-08-24T14:36:28;12.40;;;4.70;;
51006;SDS011;37034;47.886;-3.904;2023-08-24T14:38:54;12.32;;;4.72;;
51006;SDS011;37034;47.886;-3.904;2023-08-24T14:43:45;12.98;;;4.70;;
51006;SDS011;37034;47.886;-3.904;2023-08-24T14:46:12;12.45;;;4.45;;
51006;SDS011;37034;47.886;-3.904;2023-08-24T14:48:38;8.95;;;3.60;;
51006;SDS011;37034;47.886;-3.904;2023-08-24T14:53:30;10.05;;;4.38;;
51006;SDS011;37034;47.886;-3.904;2023-08-24T14:58:22;13.60;;;4.80;;
51006;SDS011;37034;47.886;-3.904;2023-08-24T15:00:49;12.75;;;4.35;;
51006;SDS011;37034;47.886;-3.904;2023-08-24T15:03:15;9.60;;;3.88;;
51006;SDS011;37034;47.886;-3.904;2023-08-24T15:05:45;14.23;;;4.30;;
51006;SDS011;37034;47.886;-3.904;2023-08-24T15:08:13;12.38;;;4.38;;
51006;SDS011;37034;47.886;-3.904;2023-08-24T15:10:39;10.00;;;4.28;;
51006;SDS011;37034;47.886;-3.904;2023-08-24T15:15:30;11.48;;;4.05;;
51006;SDS011;37034;47.886;-3.904;2023-08-24T15:17:56;11.50;;;4.22;;
51006;SDS011;37034;47.886;-3.904;2023-08-24T15:22:48;10.45;;;4.07;;
51006;SDS011;37034;47.886;-3.904;2023-08-24T15:27:39;10.82;;;3.08;;
51006;SDS011;37034;47.886;-3.904;2023-08-24T15:32:31;8.32;;;3.15;;
51006;SDS011;37034;47.886;-3.904;2023-08-24T15:34:59;9.27;;;3.08;;
51006;SDS011;37034;47.886;-3.904;2023-08-24T15:37:25;8.60;;;2.92;;
51006;SDS011;37034;47.886;-3.904;2023-08-24T15:42:18;7.40;;;2.65;;
51006;SDS011;37034;47.886;-3.904;2023-08-24T15:47:09;11.18;;;2.72;;
51006;SDS011;37034;47.886;-3.904;2023-08-24T15:49:35;7.38;;;2.65;;
51006;SDS011;37034;47.886;-3.904;2023-08-24T15:52:01;8.60;;;2.65;;
51006;SDS011;37034;47.886;-3.904;2023-08-24T15:54:26;5.50;;;2.75;;
51006;SDS011;37034;47.886;-3.904;2023-08-24T15:56:52;8.85;;;2.58;;
51006;SDS011;37034;47.886;-3.904;2023-08-24T15:59:20;10.38;;;2.70;;
51006;SDS011;37034;47.886;-3.904;2023-08-24T16:04:12;4.85;;;2.22;;
51006;SDS011;37034;47.886;-3.904;2023-08-24T16:09:03;7.18;;;2.33;;
51006;SDS011;37034;47.886;-3.904;2023-08-24T16:11:29;9.40;;;2.70;;
51006;SDS011;37034;47.886;-3.904;2023-08-24T16:13:55;9.20;;;2.97;;
51006;SDS011;37034;47.886;-3.904;2023-08-24T16:16:20;7.03;;;2.58;;
51006;SDS011;37034;47.886;-3.904;2023-08-24T16:18:46;10.68;;;2.95;;
51006;SDS011;37034;47.886;-3.904;2023-08-24T16:21:12;6.60;;;2.85;;
51006;SDS011;37034;47.886;-3.904;2023-08-24T16:23:37;9.88;;;2.83;;
51006;SDS011;37034;47.886;-3.904;2023-08-24T16:26:03;6.50;;;2.55;;
51006;SDS011;37034;47.886;-3.904;2023-08-24T16:28:28;7.63;;;2.88;;
51006;SDS011;37034;47.886;-3.904;2023-08-24T16:30:54;7.25;;;3.03;;
51006;SDS011;37034;47.886;-3.904;2023-08-24T16:33:20;12.05;;;2.90;;